Terminal Aerodrome Forecast
Issued by NWS

Home | Current Version | Previous Version | Text Only | Print | Product List | Glossary On
Versions: 1 2 3 4 5 6 7 8 9 10 11 12 13 14 15
133
FTUS41 KGYX 281724
TAFRKD
TAF
KRKD 281724Z 2818/2918 VRB03KT 1 1/2SM -SHRA BR OVC002
     FM281900 VRB03KT 2SM BR OVC004
     FM290200 24004KT 1/2SM FG OVC002
     FM291500 24006KT P6SM BKN015=

USA.gov is the U.S. government's official web portal to all federal, state and local government web resources and services.